M I D A S
Marine Information and Data Acquisition System
Tripno 325 of the Zeeleeuw from 2002-08-12 06:44:28 to 2002-08-12 13:50:56
Back to CruiseResearch ActivitiesStationsMapUnderway DataData graphs

EquipmentUnitsComment
TimeDGPSUTC
LatitudeDGPSDM.mWGS84
LongitudeDGPSDM.mWGS84
HeadingGyrodeg 
SOGDGPSknotsSpeed over ground
COGDGPSdegCourse over ground
DepthEcho soundermeters200 kHz
Missing or incorrect values are displayed as -999
Navigation data collected by the RV Zeeleeuw from 2002-08-12 06:44:28 to 2002-08-12 13:50:56
                                                                                    Next 1000 lines
Time Latitude Longitude Heading SOG COG Depth
2002-08-12 06:44:37 51°13.617 2°55.983 321.2 0.3 178.1 10.7
2002-08-12 06:44:41 51°13.617 2°55.983 320.5 0.2 237.9 10.7
2002-08-12 06:44:47 51°13.618 2°55.982 319.8 0.4 294 10.8
2002-08-12 06:44:52 51°13.619 2°55.98 318.8 0.7 305.1 10.7
2002-08-12 06:44:57 51°13.62 2°55.979 317.8 0.9 308.1 10.8
2002-08-12 06:45:03 51°13.622 2°55.976 316.3 1.3 312 -999
2002-08-12 06:45:07 51°13.623 2°55.974 315.5 1.6 311.7 -999
2002-08-12 06:45:13 51°13.625 2°55.97 315 1.8 311.5 -999
2002-08-12 06:45:17 51°13.626 2°55.968 314.5 2 311.2 -999
2002-08-12 06:45:22 51°13.629 2°55.964 313 2.2 310.8 -999
2002-08-12 06:45:27 51°13.631 2°55.96 310.7 2.4 309.6 10.5
2002-08-12 06:45:32 51°13.633 2°55.955 309.2 2.6 307.3 10.4
2002-08-12 06:45:37 51°13.635 2°55.95 308 2.7 306.7 10.4
2002-08-12 06:45:42 51°13.637 2°55.944 307.2 2.9 305.6 10.3
2002-08-12 06:45:46 51°13.64 2°55.94 306.5 3.1 305.6 10.3
2002-08-12 06:45:52 51°13.643 2°55.933 306 3.2 304.8 10.1
2002-08-12 06:45:56 51°13.645 2°55.928 305.7 3.4 305.5 10.4
2002-08-12 06:46:02 51°13.648 2°55.92 305.3 3.5 305.8 10.3
2002-08-12 06:46:06 51°13.65 2°55.914 304.8 3.6 305.4 10.2
2002-08-12 06:46:12 51°13.654 2°55.906 304.5 3.7 304.8 10.6
2002-08-12 06:46:17 51°13.657 2°55.899 304.3 3.8 304.6 10.5
2002-08-12 06:46:22 51°13.66 2°55.892 304 3.9 304.2 10.3
2002-08-12 06:46:26 51°13.662 2°55.885 303.5 4 303 10.4
2002-08-12 06:46:32 51°13.666 2°55.875 302.5 4.1 301.6 10.5
2002-08-12 06:46:37 51°13.669 2°55.868 301.5 4.2 300.4 10.3
2002-08-12 06:46:42 51°13.672 2°55.86 300.5 4.3 299.2 10.3
2002-08-12 06:46:46 51°13.674 2°55.853 299.8 4.4 298.7 10.3
2002-08-12 06:46:52 51°13.678 2°55.843 299.7 4.5 298.5 10.4
2002-08-12 06:46:56 51°13.68 2°55.836 300 4.5 298.4 9.9
2002-08-12 06:47:02 51°13.684 2°55.825 300.5 4.6 298.3 9.4
2002-08-12 06:47:07 51°13.687 2°55.816 301.2 4.7 298.1 9.9
2002-08-12 06:47:12 51°13.69 2°55.807 302 4.7 298.9 11
2002-08-12 06:47:17 51°13.694 2°55.798 303 4.7 299.4 11.4
2002-08-12 06:47:22 51°13.697 2°55.788 304 4.8 299.6 12.2
2002-08-12 06:47:26 51°13.7 2°55.781 305.5 4.8 300.3 12.9
2002-08-12 06:47:32 51°13.704 2°55.771 307.3 4.9 302.6 13.4
2002-08-12 06:47:37 51°13.708 2°55.762 309.7 4.9 304.2 13.3
2002-08-12 06:47:42 51°13.712 2°55.753 312.2 4.9 307.5 13.6
2002-08-12 06:47:47 51°13.717 2°55.745 315.2 4.9 309.4 11.8
2002-08-12 06:47:52 51°13.722 2°55.737 318 4.9 312.3 11.2
2002-08-12 06:47:57 51°13.726 2°55.73 320.3 4.9 314.6 10.5
2002-08-12 06:48:02 51°13.731 2°55.723 322.7 4.9 318.2 10.1
2002-08-12 06:48:07 51°13.737 2°55.716 324.7 4.9 320.1 10
2002-08-12 06:48:12 51°13.742 2°55.71 327 4.9 323.3 10
2002-08-12 06:48:17 51°13.748 2°55.704 329.5 4.9 325 9.9
2002-08-12 06:48:22 51°13.754 2°55.699 332.2 4.8 327.5 9.9
2002-08-12 06:48:26 51°13.758 2°55.694 333.7 4.8 329.2 10
2002-08-12 06:48:32 51°13.765 2°55.688 334.5 4.8 330.5 10.2
2002-08-12 06:48:37 51°13.771 2°55.683 335 4.8 331 9.9
2002-08-12 06:48:42 51°13.777 2°55.678 335.7 4.9 332.2 9.9
2002-08-12 06:48:46 51°13.782 2°55.674 336.2 4.9 332.7 10.1
2002-08-12 06:48:52 51°13.789 2°55.668 336.3 5 333.4 10.5
2002-08-12 06:48:57 51°13.796 2°55.663 336.3 5 333.6 10.4
2002-08-12 06:49:02 51°13.802 2°55.658 336.5 5.1 333.9 10.3
2002-08-12 06:49:06 51°13.807 2°55.654 337 5.1 334.4 10.5
2002-08-12 06:49:12 51°13.815 2°55.649 337.7 5.1 335.1 10.6
2002-08-12 06:49:17 51°13.822 2°55.645 337.7 5.2 335.3 10.7
2002-08-12 06:49:22 51°13.828 2°55.641 337.5 5.2 335.4 10.4
2002-08-12 06:49:26 51°13.834 2°55.637 337.3 5.2 335.3 10.5
2002-08-12 06:49:32 51°13.842 2°55.631 337.3 5.2 335.4 10.3
2002-08-12 06:49:37 51°13.848 2°55.626 337.5 5.2 335.4 10.1
2002-08-12 06:49:42 51°13.855 2°55.621 337.7 5.3 335.9 9.8
2002-08-12 06:49:47 51°13.862 2°55.616 337.5 5.3 336.2 9.9
2002-08-12 06:49:52 51°13.869 2°55.611 337.3 5.4 336.3 9.7
2002-08-12 06:49:57 51°13.875 2°55.607 337.5 5.4 336.3 9.9
2002-08-12 06:50:02 51°13.883 2°55.602 338 5.4 336.4 10.1
2002-08-12 06:50:06 51°13.888 2°55.598 338.2 5.4 336.8 10
2002-08-12 06:50:12 51°13.896 2°55.592 337.7 5.4 336.6 10.3
2002-08-12 06:50:17 51°13.903 2°55.588 337.5 5.5 336.6 10.5
2002-08-12 06:50:22 51°13.911 2°55.583 338 5.5 337 10.7
2002-08-12 06:50:26 51°13.916 2°55.579 338.3 5.6 337.3 10.9
2002-08-12 06:50:32 51°13.925 2°55.574 338.8 5.7 337.6 10.9
2002-08-12 06:50:37 51°13.933 2°55.569 339.2 5.7 338 10.4
2002-08-12 06:50:42 51°13.94 2°55.564 338.7 5.8 337.8 10.3
2002-08-12 06:50:46 51°13.946 2°55.56 338.5 5.9 337.9 10.4
2002-08-12 06:50:52 51°13.956 2°55.554 338.8 6 337.8 10.7
2002-08-12 06:50:57 51°13.963 2°55.549 339 6 338 10.5
2002-08-12 06:51:02 51°13.971 2°55.544 338.5 6 337.4 10.5
2002-08-12 06:51:06 51°13.977 2°55.539 338.2 6.1 337.1 10.2
2002-08-12 06:51:12 51°13.986 2°55.533 337.8 6.1 336.2 10.6
2002-08-12 06:51:17 51°13.994 2°55.528 337.5 6.1 336 10.7
2002-08-12 06:51:22 51°14.002 2°55.521 337 6.1 335.4 10.8
2002-08-12 06:51:26 51°14.008 2°55.517 337 6.2 335.2 10.5
2002-08-12 06:51:32 51°14.018 2°55.51 337 6.2 335 10.3
2002-08-12 06:51:37 51°14.025 2°55.505 337.2 6.2 335.1 10.5
2002-08-12 06:51:42 51°14.033 2°55.499 337 6.2 334.7 10.7
2002-08-12 06:51:47 51°14.041 2°55.493 336.8 6.2 334.5 10.7
2002-08-12 06:51:52 51°14.049 2°55.487 336.3 6.2 334.3 10.8
2002-08-12 06:51:57 51°14.057 2°55.481 336.2 6.3 334.1 10.6
2002-08-12 06:52:02 51°14.065 2°55.475 336.7 6.4 334.2 10.5
2002-08-12 06:52:07 51°14.073 2°55.468 336.7 6.5 334.2 10.3
2002-08-12 06:52:12 51°14.081 2°55.461 336.3 6.6 333.9 10.3
2002-08-12 06:52:17 51°14.09 2°55.455 335.7 6.7 333.7 10.3
2002-08-12 06:52:22 51°14.098 2°55.448 335.2 6.8 333.4 10.3
2002-08-12 06:52:27 51°14.107 2°55.441 335 6.9 333 10.5
2002-08-12 06:52:32 51°14.115 2°55.434 335.3 6.9 333.1 10.4
2002-08-12 06:52:37 51°14.124 2°55.427 335 7 332.8 10.5
2002-08-12 06:52:42 51°14.132 2°55.419 334.2 7 332.4 10.5
2002-08-12 06:52:46 51°14.139 2°55.412 333.2 7.1 331.3 10.5
2002-08-12 06:52:52 51°14.149 2°55.402 332.3 7.1 330.1 10.6
2002-08-12 06:52:57 51°14.158 2°55.395 331.2 7.2 329.3 10.7
2002-08-12 06:53:02 51°14.167 2°55.387 330 7.2 327.9 10.5
2002-08-12 06:53:07 51°14.175 2°55.378 329 7.3 327.1 10.6
2002-08-12 06:53:12 51°14.184 2°55.369 327.5 7.3 325.6 10.6
2002-08-12 06:53:17 51°14.192 2°55.359 325.8 7.3 324.6 10.5
2002-08-12 06:53:22 51°14.2 2°55.351 324.2 7.3 328.5 10.4
2002-08-12 06:53:26 51°14.207 2°55.342 323.2 7.3 326 10.5
2002-08-12 06:53:32 51°14.216 2°55.329 322.8 7.3 322.6 10.6
2002-08-12 06:53:37 51°14.224 2°55.318 322.3 7.4 320.1 10.7
2002-08-12 06:53:42 51°14.231 2°55.308 321 7.4 318.6 10.5
2002-08-12 06:53:46 51°14.238 2°55.299 319.5 7.4 317.1 10.5
2002-08-12 06:53:52 51°14.247 2°55.285 318.3 7.5 316.2 10.6
2002-08-12 06:53:57 51°14.254 2°55.273 317.7 7.5 315.5 10.6
2002-08-12 06:54:02 51°14.262 2°55.262 317 7.5 314.6 10.6
2002-08-12 06:54:06 51°14.268 2°55.253 316.2 7.5 313.6 10.5
2002-08-12 06:54:12 51°14.277 2°55.24 315 7.5 312.4 10.4
2002-08-12 06:54:17 51°14.284 2°55.228 314.3 7.5 312 10.4
2002-08-12 06:54:22 51°14.291 2°55.215 314.2 7.5 311.5 10.4
2002-08-12 06:54:27 51°14.298 2°55.203 314 7.6 311.3 10.5
2002-08-12 06:54:32 51°14.304 2°55.19 313.3 7.6 310.6 10.5
2002-08-12 06:54:37 51°14.311 2°55.176 312.3 7.6 309.9 10.4
2002-08-12 06:54:42 51°14.317 2°55.162 311.7 7.6 309.1 10.3
2002-08-12 06:54:46 51°14.322 2°55.151 311 7.6 308.3 10.4
2002-08-12 06:54:52 51°14.329 2°55.135 310.2 7.6 307.3 10.2
2002-08-12 06:54:57 51°14.335 2°55.12 309.3 7.6 306.5 10.1
2002-08-12 06:55:02 51°14.341 2°55.106 308.5 7.6 305.3 10.1
2002-08-12 06:55:06 51°14.346 2°55.095 308 7.6 305 10
2002-08-12 06:55:12 51°14.353 2°55.077 307.2 7.6 304.1 10.8
2002-08-12 06:55:17 51°14.358 2°55.062 306.7 7.6 303.5 10.5
2002-08-12 06:55:22 51°14.364 2°55.048 306 7.6 302.2 10.3
2002-08-12 06:55:27 51°14.369 2°55.034 304.8 7.6 301.2 9.9
2002-08-12 06:55:32 51°14.374 2°55.018 302.8 7.6 298.5 10
2002-08-12 06:55:37 51°14.378 2°55.002 299.2 7.5 295.8 9.8
2002-08-12 06:55:41 51°14.381 2°54.99 294.5 7.5 291.8 9.9
2002-08-12 06:55:46 51°14.384 2°54.974 290 7.4 287.5 9.9
2002-08-12 06:55:52 51°14.386 2°54.956 285.3 7.3 282.9 9.8
2002-08-12 06:55:57 51°14.388 2°54.94 281.2 7.3 278.5 9.8
2002-08-12 06:56:02 51°14.388 2°54.923 278.2 7.3 275.7 9.8
2002-08-12 06:56:06 51°14.389 2°54.911 276.2 7.3 272.5 9.8
2002-08-12 06:56:12 51°14.389 2°54.891 274.8 7.4 270.4 9.7
2002-08-12 06:56:17 51°14.388 2°54.875 273.8 7.4 269.5 9.7
2002-08-12 06:56:22 51°14.388 2°54.858 273.7 7.5 268.5 9.7
2002-08-12 06:56:26 51°14.388 2°54.844 273.5 7.5 267.8 9.7
2002-08-12 06:56:32 51°14.387 2°54.824 272.2 7.6 266.2 9.7
2002-08-12 06:56:37 51°14.385 2°54.808 269.5 7.7 264.3 9.7
2002-08-12 06:56:42 51°14.384 2°54.791 267 7.8 261.4 9.7
2002-08-12 06:56:47 51°14.382 2°54.773 265 7.9 259.9 9.7
2002-08-12 06:56:52 51°14.38 2°54.757 263.5 8 258.1 9.6
2002-08-12 06:56:57 51°14.378 2°54.741 262.5 8 257.2 9.6
2002-08-12 06:57:02 51°14.375 2°54.724 261.2 8.1 255.7 9.6
2002-08-12 06:57:06 51°14.372 2°54.71 259.3 8.1 254.8 9.5
2002-08-12 06:57:12 51°14.367 2°54.688 257.5 8.2 252.8 9.5
2002-08-12 06:57:17 51°14.363 2°54.67 255.2 8.2 251.5 9.4
2002-08-12 06:57:22 51°14.359 2°54.653 253 8.2 249.5 9.3
2002-08-12 06:57:26 51°14.355 2°54.64 251.3 8.3 248.2 9.2
2002-08-12 06:57:32 51°14.35 2°54.62 250.7 8.3 247.3 9.1
2002-08-12 06:57:37 51°14.346 2°54.603 250 8.3 247 9.1
2002-08-12 06:57:42 51°14.341 2°54.586 249 8.3 246.2 9.1
2002-08-12 06:57:47 51°14.336 2°54.57 248.3 8.4 245.8 9
2002-08-12 06:57:52 51°14.331 2°54.553 247.7 8.4 245 9
2002-08-12 06:57:57 51°14.326 2°54.536 247 8.4 244.6 9
2002-08-12 06:58:02 51°14.321 2°54.519 246.5 8.4 243.9 9
2002-08-12 06:58:07 51°14.316 2°54.503 245.5 8.4 243.1 9
2002-08-12 06:58:12 51°14.31 2°54.486 244.7 8.4 242.4 9
2002-08-12 06:58:17 51°14.305 2°54.47 244.8 8.4 241.9 9
2002-08-12 06:58:22 51°14.299 2°54.453 244.8 8.4 241.9 9
2002-08-12 06:58:26 51°14.295 2°54.44 244.8 8.5 241.8 8.9
2002-08-12 06:58:32 51°14.288 2°54.42 245.3 8.6 242.4 8.9
2002-08-12 06:58:37 51°14.283 2°54.403 245.7 8.7 242.4 9
2002-08-12 06:58:42 51°14.277 2°54.385 246 9 242.7 8.9
2002-08-12 06:58:47 51°14.271 2°54.366 245 9.3 242.4 8.9
2002-08-12 06:58:52 51°14.264 2°54.347 245.3 9.6 242.6 8.9
2002-08-12 06:58:57 51°14.258 2°54.327 245 9.9 242.4 8.9
2002-08-12 06:59:02 51°14.251 2°54.307 245 10.3 242.3 8.8
2002-08-12 06:59:06 51°14.245 2°54.29 244.7 10.6 242.2 8.8
2002-08-12 06:59:12 51°14.236 2°54.264 244.5 11 242.1 8.8
2002-08-12 06:59:17 51°14.229 2°54.242 244.8 11.2 242.1 8.8
2002-08-12 06:59:22 51°14.222 2°54.219 244.7 11.6 242.2 8.8
2002-08-12 06:59:27 51°14.214 2°54.196 244.8 11.8 242.2 8.7
2002-08-12 06:59:32 51°14.206 2°54.173 245 11.9 242.1 8.7
2002-08-12 06:59:37 51°14.198 2°54.148 244.8 12.1 242.3 8.5
2002-08-12 06:59:42 51°14.19 2°54.124 244.8 12.3 242.1 8.7
2002-08-12 06:59:47 51°14.182 2°54.1 245 12.5 242.1 8.7
2002-08-12 06:59:52 51°14.174 2°54.074 244.8 12.8 242.5 8.7
2002-08-12 06:59:57 51°14.165 2°54.049 244.8 12.9 242.4 8.7
2002-08-12 07:00:02 51°14.157 2°54.023 244.8 13.1 242.4 8.7
2002-08-12 07:00:07 51°14.148 2°53.997 245.2 13.3 242.6 8.7
2002-08-12 07:00:12 51°14.14 2°53.97 245.2 13.5 242.8 8.7
2002-08-12 07:00:17 51°14.131 2°53.943 245.2 13.7 242.7 8.7
2002-08-12 07:00:22 51°14.122 2°53.915 245.3 13.9 242.8 8.7
2002-08-12 07:00:27 51°14.114 2°53.888 245.5 14 243.1 8.7
2002-08-12 07:00:32 51°14.105 2°53.859 245.7 14.2 243.2 8.7
2002-08-12 07:00:37 51°14.097 2°53.83 246.3 14.3 243.7 8.6
2002-08-12 07:00:42 51°14.089 2°53.802 245.8 14.4 243.6 8.6
2002-08-12 07:00:46 51°14.082 2°53.778 245.8 14.4 243.6 8.6
2002-08-12 07:00:52 51°14.07 2°53.748 246 14.5 243.7 8.7
2002-08-12 07:00:57 51°14.06 2°53.72 246 14.6 243.9 8.6
2002-08-12 07:01:02 51°14.051 2°53.691 246 14.6 243.8 8.7
2002-08-12 07:01:06 51°14.044 2°53.667 246.8 14.7 244.2 8.7
2002-08-12 07:01:12 51°14.033 2°53.632 246.2 14.7 243.9 8.7
2002-08-12 07:01:17 51°14.024 2°53.602 246 14.7 244 8.7
2002-08-12 07:01:22 51°14.015 2°53.572 245.5 14.8 243.6 8.7
2002-08-12 07:01:27 51°14.006 2°53.542 245.7 14.8 243.6 8.8
2002-08-12 07:01:32 51°13.997 2°53.513 246 14.8 243.8 8.7
2002-08-12 07:01:37 51°13.988 2°53.483 246.3 14.8 244 8.8
2002-08-12 07:01:42 51°13.979 2°53.454 245.5 14.8 243.5 8.8
2002-08-12 07:01:46 51°13.971 2°53.431 245.5 14.8 243.3 8.8
2002-08-12 07:01:52 51°13.96 2°53.396 245 14.9 243.1 8.8
2002-08-12 07:01:57 51°13.95 2°53.366 245 14.9 242.7 8.8
2002-08-12 07:02:02 51°13.941 2°53.336 245.2 14.9 242.8 8.8
2002-08-12 07:02:07 51°13.932 2°53.307 245.2 14.9 242.8 8.8
2002-08-12 07:02:12 51°13.923 2°53.278 244.8 14.9 242.8 8.8
2002-08-12 07:02:17 51°13.914 2°53.249 245.3 14.9 243.2 8.8
2002-08-12 07:02:22 51°13.905 2°53.22 245.2 14.9 243.1 9
2002-08-12 07:02:26 51°13.897 2°53.196 246.3 14.9 243.8 9
2002-08-12 07:02:30 51°13.89 2°53.172 246.2 14.9 244 9
2002-08-12 07:02:36 51°13.878 2°53.136 246.8 14.9 244.2 9.1
2002-08-12 07:02:41 51°13.869 2°53.106 246.7 15 244.5 9
2002-08-12 07:02:46 51°13.86 2°53.076 247 15 244.5 9.1
2002-08-12 07:02:52 51°13.849 2°53.04 246.7 15 244.2 9.1
2002-08-12 07:02:57 51°13.84 2°53.01 246 15 243.9 9.2
2002-08-12 07:03:02 51°13.831 2°52.98 246.3 15 243.7 9.1
2002-08-12 07:03:07 51°13.821 2°52.951 245.5 15 243.4 9.2
2002-08-12 07:03:12 51°13.812 2°52.921 245.5 15 243.4 9.3
2002-08-12 07:03:17 51°13.802 2°52.891 245.2 15 243.1 9.3
2002-08-12 07:03:22 51°13.793 2°52.862 245.3 15 243.1 9.3
2002-08-12 07:03:26 51°13.785 2°52.838 245.5 15.1 243.1 9.3
2002-08-12 07:03:32 51°13.774 2°52.802 245.2 15 242.8 9.3
2002-08-12 07:03:37 51°13.764 2°52.773 245 15.1 242.7 9.4
2002-08-12 07:03:42 51°13.755 2°52.743 245.2 15.1 242.9 9.5
2002-08-12 07:03:47 51°13.745 2°52.714 244.8 15.1 242.8 9.5
2002-08-12 07:03:52 51°13.736 2°52.684 245.2 15.1 243 9.5
2002-08-12 07:03:57 51°13.726 2°52.654 245.5 15.1 243.1 9.5
2002-08-12 07:04:02 51°13.717 2°52.625 245.5 15.1 243.2 9.6
2002-08-12 07:04:06 51°13.71 2°52.601 245.5 15 243.4 9.5
2002-08-12 07:04:12 51°13.698 2°52.565 246 15 243.5 9.6
2002-08-12 07:04:17 51°13.689 2°52.536 245.7 15 243.5 9.6
2002-08-12 07:04:22 51°13.68 2°52.506 245.8 15 243.6 9.6
2002-08-12 07:04:26 51°13.672 2°52.482 246.2 15 243.8 9.5
2002-08-12 07:04:32 51°13.661 2°52.447 246 14.9 243.4 9.5
2002-08-12 07:04:37 51°13.652 2°52.417 245.7 14.9 243.3 9.8
2002-08-12 07:04:42 51°13.643 2°52.387 245.8 15 243.5 9.7
2002-08-12 07:04:47 51°13.634 2°52.358 245.8 15 243.6 9.8
2002-08-12 07:04:52 51°13.624 2°52.328 245.2 15 243 9.9
2002-08-12 07:04:57 51°13.615 2°52.298 245.7 15 243 9.9
2002-08-12 07:05:02 51°13.606 2°52.268 245.2 15 243 9.9
2002-08-12 07:05:06 51°13.598 2°52.245 245.3 15 242.8 9.9
2002-08-12 07:05:12 51°13.587 2°52.209 245.7 15 243.2 9.9
2002-08-12 07:05:17 51°13.577 2°52.18 245.2 15 242.8 9.9
2002-08-12 07:05:22 51°13.568 2°52.15 245.5 14.9 243.2 9.9
2002-08-12 07:05:26 51°13.56 2°52.127 245.5 14.9 243 9.9
2002-08-12 07:05:32 51°13.549 2°52.092 245.8 14.9 243.4 9.9
2002-08-12 07:05:37 51°13.54 2°52.062 245.7 15 243.3 9.9
2002-08-12 07:05:42 51°13.53 2°52.032 245.8 15 243.5 9.9
2002-08-12 07:05:46 51°13.523 2°52.009 246 15 243.5 10
2002-08-12 07:05:52 51°13.512 2°51.973 246 14.9 243.7 9.9
2002-08-12 07:05:57 51°13.503 2°51.944 245.7 14.9 243.4 10
2002-08-12 07:06:02 51°13.494 2°51.914 246.3 15 243.8 9.9
2002-08-12 07:06:06 51°13.486 2°51.89 246.2 15 243.8 9.9
2002-08-12 07:06:12 51°13.475 2°51.855 246.2 15 243.9 10
2002-08-12 07:06:17 51°13.466 2°51.825 246.5 15 244.1 9.9
2002-08-12 07:06:22 51°13.457 2°51.796 246.5 15 244 9.9
2002-08-12 07:06:26 51°13.449 2°51.772 246.3 15 244 10
2002-08-12 07:06:32 51°13.439 2°51.736 246.3 14.9 243.8 10
2002-08-12 07:06:37 51°13.429 2°51.706 246.2 15 243.8 10
2002-08-12 07:06:42 51°13.42 2°51.676 246.3 15 243.6 10
2002-08-12 07:06:47 51°13.411 2°51.647 245.8 15 243.3 9.9
2002-08-12 07:06:52 51°13.402 2°51.617 245.8 15 243.5 9.9
2002-08-12 07:06:57 51°13.392 2°51.588 245.7 15 243.2 9.9
2002-08-12 07:07:02 51°13.383 2°51.558 245.8 15 243.3 9.9
2002-08-12 07:07:06 51°13.376 2°51.534 245.5 15 243 9.9
2002-08-12 07:07:12 51°13.365 2°51.499 245.2 15 243 9.9
2002-08-12 07:07:17 51°13.355 2°51.47 245.2 14.9 242.8 9.9
2002-08-12 07:07:22 51°13.345 2°51.44 245.2 15 242.9 9.9
2002-08-12 07:07:27 51°13.336 2°51.411 245 15 242.7 9.9
2002-08-12 07:07:32 51°13.326 2°51.382 244.7 15 242.2 9.9
2002-08-12 07:07:37 51°13.315 2°51.353 243.7 15 241.4 9.9
2002-08-12 07:07:42 51°13.305 2°51.324 243.7 15 241.2 9.9
2002-08-12 07:07:46 51°13.297 2°51.301 243.3 15 241.1 10
2002-08-12 07:07:52 51°13.285 2°51.266 243.2 15 241.1 10
2002-08-12 07:07:57 51°13.275 2°51.237 243.5 15 241.3 10
2002-08-12 07:08:02 51°13.265 2°51.208 243.7 15 241.3 10
2002-08-12 07:08:07 51°13.255 2°51.179 243.7 15 241.6 10.1
2002-08-12 07:08:12 51°13.245 2°51.15 243.8 15 241.5 10
2002-08-12 07:08:17 51°13.235 2°51.12 244 15 241.8 10.1
2002-08-12 07:08:22 51°13.225 2°51.092 243.7 15 241.5 10.1
2002-08-12 07:08:26 51°13.218 2°51.068 244 15 241.8 10.1
2002-08-12 07:08:32 51°13.206 2°51.032 244.3 15 242 10.1
2002-08-12 07:08:37 51°13.196 2°51.003 244.2 15 241.9 10.1
2002-08-12 07:08:42 51°13.186 2°50.974 244.3 15 241.9 10.1
2002-08-12 07:08:47 51°13.176 2°50.945 243.8 15 241.7 10.1
2002-08-12 07:08:52 51°13.167 2°50.916 243.7 15 241.7 10.2
2002-08-12 07:08:57 51°13.156 2°50.887 243.7 15.1 241.3 10.2
2002-08-12 07:09:02 51°13.147 2°50.857 244 15.1 241.7 10.2
2002-08-12 07:09:06 51°13.138 2°50.834 243.7 15 241.4 10.2
2002-08-12 07:09:12 51°13.127 2°50.799 243.7 15 241.6 10.2
2002-08-12 07:09:17 51°13.116 2°50.77 243.2 15 241 10.2
2002-08-12 07:09:22 51°13.107 2°50.741 243.5 15 241.3 10.2
2002-08-12 07:09:27 51°13.096 2°50.712 243.3 15 241.2 10.2
2002-08-12 07:09:32 51°13.087 2°50.682 244 15.1 241.7 10.2
2002-08-12 07:09:37 51°13.077 2°50.653 244.2 15 241.8 10.3
2002-08-12 07:09:42 51°13.067 2°50.624 243.8 15 241.8 10.2
2002-08-12 07:09:47 51°13.057 2°50.595 244.5 15 242.1 10.3
2002-08-12 07:09:52 51°13.048 2°50.565 244.3 15 242 10.3
2002-08-12 07:09:57 51°13.039 2°50.535 244.3 15.1 242.2 10.3
2002-08-12 07:10:02 51°13.029 2°50.506 244.3 15.1 242 10.4
2002-08-12 07:10:06 51°13.02 2°50.483 243.7 15.1 241.6 10.4
2002-08-12 07:10:10 51°13.012 2°50.459 243.7 15.1 241.5 10.3
2002-08-12 07:10:17 51°12.998 2°50.419 243.3 15.1 241.1 10.4
2002-08-12 07:10:22 51°12.988 2°50.39 243.7 15.1 241.3 10.4
2002-08-12 07:10:27 51°12.978 2°50.36 243.5 15 241.4 10.3
2002-08-12 07:10:32 51°12.968 2°50.331 244 15.1 241.7 10.4
2002-08-12 07:10:37 51°12.958 2°50.301 244.3 15.1 241.9 10.4
2002-08-12 07:10:42 51°12.948 2°50.272 244 15 241.7 10.4
2002-08-12 07:10:46 51°12.941 2°50.249 243.8 15 241.7 10.4
2002-08-12 07:10:52 51°12.929 2°50.214 244.2 15 241.6 10.4
2002-08-12 07:10:57 51°12.919 2°50.184 244 15.1 241.6 10.5
2002-08-12 07:11:02 51°12.909 2°50.155 244 15.1 241.9 10.5
2002-08-12 07:11:06 51°12.901 2°50.132 244 15.1 241.7 10.5
2002-08-12 07:11:12 51°12.889 2°50.096 244.5 15.1 242.2 10.5
2002-08-12 07:11:17 51°12.879 2°50.067 243.5 15 241.5 10.5
2002-08-12 07:11:22 51°12.869 2°50.038 244 15.1 241.7 10.5
2002-08-12 07:11:26 51°12.861 2°50.015 243.5 15.1 241.4 10.5
2002-08-12 07:11:32 51°12.849 2°49.979 243.5 15.1 241.5 10.5
2002-08-12 07:11:37 51°12.839 2°49.95 244 15.1 241.5 10.5
2002-08-12 07:11:42 51°12.829 2°49.92 244.3 15.1 241.9 10.6
2002-08-12 07:11:47 51°12.819 2°49.891 243.7 15.1 241.6 10.5
2002-08-12 07:11:52 51°12.81 2°49.862 244 15.1 241.8 10.6
2002-08-12 07:11:57 51°12.8 2°49.833 244.2 15.1 241.7 10.6
2002-08-12 07:12:02 51°12.79 2°49.804 244.2 15.1 241.7 10.6
2002-08-12 07:12:06 51°12.783 2°49.781 244.5 15.1 242 10.6
2002-08-12 07:12:12 51°12.771 2°49.747 243.5 15 241.3 10.6
2002-08-12 07:12:17 51°12.762 2°49.717 243.7 15 241.6 10.6
2002-08-12 07:12:22 51°12.751 2°49.688 243.8 15 241.5 10.6
2002-08-12 07:12:26 51°12.743 2°49.664 244 15.1 241.5 10.6
2002-08-12 07:12:32 51°12.731 2°49.629 244 15.1 241.8 10.6
2002-08-12 07:12:37 51°12.721 2°49.6 244.2 15.1 241.7 10.6
2002-08-12 07:12:42 51°12.711 2°49.571 244.2 15 241.8 10.6
2002-08-12 07:12:46 51°12.704 2°49.547 244 15.1 241.9 10.7
2002-08-12 07:12:52 51°12.692 2°49.512 243.7 15.1 241.5 10.7
2002-08-12 07:12:57 51°12.682 2°49.483 244 15.1 241.6 10.7
2002-08-12 07:13:02 51°12.672 2°49.453 244 15.1 241.5 10.7
2002-08-12 07:13:07 51°12.662 2°49.424 244.3 15 241.9 10.7
2002-08-12 07:13:12 51°12.652 2°49.395 243.8 15 241.7 10.7
2002-08-12 07:13:17 51°12.643 2°49.366 244.2 15.1 241.9 10.7
2002-08-12 07:13:22 51°12.634 2°49.338 244 15.1 241.8 10.7
2002-08-12 07:13:26 51°12.626 2°49.314 243.7 15.1 241.7 10.8
2002-08-12 07:13:32 51°12.613 2°49.279 243.5 15 241.2 10.8
2002-08-12 07:13:37 51°12.603 2°49.249 243.2 15.1 241 10.8
2002-08-12 07:13:42 51°12.592 2°49.22 242.8 15.1 240.7 10.8
2002-08-12 07:13:47 51°12.582 2°49.191 243 15.1 241.1 10.8
2002-08-12 07:13:52 51°12.572 2°49.161 243.8 15.1 241.5 10.8
2002-08-12 07:13:57 51°12.563 2°49.132 244.2 15.1 242 10.8
2002-08-12 07:14:02 51°12.553 2°49.103 243.8 15.1 241.7 10.8
2002-08-12 07:14:07 51°12.543 2°49.074 244 15.1 242.2 10.8
2002-08-12 07:14:12 51°12.534 2°49.045 244 15.1 241.7 10.9
2002-08-12 07:14:17 51°12.524 2°49.015 244.3 15.1 242.2 10.9
2002-08-12 07:14:22 51°12.514 2°48.986 244.5 15.1 242.1 10.7
2002-08-12 07:14:26 51°12.506 2°48.962 244.2 15.1 241.9 10.8
2002-08-12 07:14:32 51°12.495 2°48.927 244.2 15 242 10.8
2002-08-12 07:14:37 51°12.484 2°48.898 244 15 241.8 10.8
2002-08-12 07:14:42 51°12.474 2°48.869 244.2 15.1 242 10.9
2002-08-12 07:14:46 51°12.467 2°48.846 244.2 15.1 241.9 10.9
2002-08-12 07:14:52 51°12.455 2°48.81 244.3 15.1 242.1 10.8
2002-08-12 07:14:57 51°12.445 2°48.78 244.5 15.1 242.1 10.8
2002-08-12 07:15:02 51°12.435 2°48.751 244 15.1 242 10.9
2002-08-12 07:15:06 51°12.427 2°48.727 244.2 15.1 241.9 10.9
2002-08-12 07:15:12 51°12.415 2°48.692 244.2 15.1 241.9 11
2002-08-12 07:15:17 51°12.406 2°48.662 244.5 15.1 242.1 11
2002-08-12 07:15:22 51°12.396 2°48.632 244.5 15.1 242.1 10.9
2002-08-12 07:15:26 51°12.388 2°48.609 244 15.1 241.9 11
2002-08-12 07:15:32 51°12.376 2°48.573 244.3 15.1 241.9 10.9
2002-08-12 07:15:37 51°12.366 2°48.544 244.2 15.1 241.9 10.9
2002-08-12 07:15:42 51°12.356 2°48.514 243.5 15.1 241.6 10.9
2002-08-12 07:15:46 51°12.348 2°48.491 243.7 15.1 241.3 11
2002-08-12 07:15:52 51°12.336 2°48.456 243.5 15.2 241.5 11
2002-08-12 07:15:56 51°12.328 2°48.432 244.2 15.1 241.9 11
2002-08-12 07:16:02 51°12.316 2°48.397 243.8 15.1 241.6 11
2002-08-12 07:16:06 51°12.308 2°48.373 243.5 15.1 241.7 11
2002-08-12 07:16:12 51°12.296 2°48.338 243.7 15.2 241.4 11
2002-08-12 07:16:17 51°12.286 2°48.309 243.5 15.1 241.3 11
2002-08-12 07:16:22 51°12.276 2°48.279 243.2 15.1 241 11
2002-08-12 07:16:26 51°12.268 2°48.256 243.2 15.1 240.9 10.9
2002-08-12 07:16:32 51°12.256 2°48.221 242.7 15.1 240.8 11
2002-08-12 07:16:37 51°12.246 2°48.192 243 15.1 240.8 11
2002-08-12 07:16:42 51°12.235 2°48.163 242.8 15.1 240.9 11.1
2002-08-12 07:16:46 51°12.227 2°48.139 243.2 15.1 241.2 11
2002-08-12 07:16:52 51°12.215 2°48.104 243.3 15.1 241 11.1
2002-08-12 07:16:57 51°12.205 2°48.075 243.3 15.1 241.2 11.1
2002-08-12 07:17:02 51°12.195 2°48.046 243.2 15.1 241 11.1
2002-08-12 07:17:06 51°12.187 2°48.022 243.3 15.1 241.2 11.1
2002-08-12 07:17:10 51°12.179 2°47.999 243.5 15.2 241.3 11.1
2002-08-12 07:17:17 51°12.164 2°47.958 243 15.2 240.9 11.1
2002-08-12 07:17:22 51°12.154 2°47.928 243.3 15.2 241.2 11.1
2002-08-12 07:17:26 51°12.146 2°47.905 243.3 15.1 241.1 11.1
2002-08-12 07:17:32 51°12.134 2°47.87 243.3 15.1 241.4 11.1
2002-08-12 07:17:37 51°12.124 2°47.84 243.8 15.2 241.6 11.1
2002-08-12 07:17:42 51°12.114 2°47.81 243.8 15.2 241.7 11
2002-08-12 07:17:46 51°12.106 2°47.787 243.7 15.2 241.6 11
2002-08-12 07:17:52 51°12.094 2°47.752 243.2 15.1 241 11.1
2002-08-12 07:17:57 51°12.083 2°47.723 242.8 15.1 240.8 11.1
2002-08-12 07:18:02 51°12.073 2°47.694 242.7 15.1 240.7 11
2002-08-12 07:18:07 51°12.063 2°47.665 242.3 15.1 240.4 11
2002-08-12 07:18:12 51°12.052 2°47.635 242.3 15.1 240.4 11
2002-08-12 07:18:17 51°12.042 2°47.606 242.5 15.1 240.4 11
2002-08-12 07:18:22 51°12.032 2°47.577 242.7 15.1 240.7 11
2002-08-12 07:18:26 51°12.024 2°47.554 243 15.2 241 11
2002-08-12 07:18:32 51°12.012 2°47.519 243.2 15.1 241 11
2002-08-12 07:18:37 51°12.002 2°47.489 243.3 15.1 241.4 11
2002-08-12 07:18:42 51°11.991 2°47.46 243.2 15.1 241.1 11
2002-08-12 07:18:46 51°11.983 2°47.437 242.7 15.1 240.9 11
2002-08-12 07:18:52 51°11.971 2°47.402 242.7 15.1 240.6 11
2002-08-12 07:18:56 51°11.963 2°47.378 242.7 15.1 240.7 11
2002-08-12 07:19:02 51°11.95 2°47.344 242.3 15.1 240.5 10.9
2002-08-12 07:19:06 51°11.942 2°47.32 242.8 15.1 240.7 10.9
2002-08-12 07:19:12 51°11.93 2°47.285 243 15.1 240.9 10.9
2002-08-12 07:19:17 51°11.92 2°47.256 243.2 15.1 241.1 10.9
2002-08-12 07:19:22 51°11.91 2°47.227 243.2 15.1 241.2 10.9
2002-08-12 07:19:26 51°11.901 2°47.204 242.8 15.1 241 10.8
2002-08-12 07:19:32 51°11.889 2°47.168 243.2 15.1 241.2 10.8
2002-08-12 07:19:37 51°11.879 2°47.139 243.2 15.1 241.1 10.8
2002-08-12 07:19:42 51°11.869 2°47.11 242.5 15.1 240.8 10.8
2002-08-12 07:19:46 51°11.861 2°47.087 242.8 15.1 241 10.8
2002-08-12 07:19:52 51°11.848 2°47.052 243 15.1 240.9 10.8
2002-08-12 07:19:57 51°11.838 2°47.023 243 15.1 241 10.7
2002-08-12 07:20:02 51°11.828 2°46.993 242.5 15.1 240.8 10.7
2002-08-12 07:20:06 51°11.82 2°46.97 243 15.2 240.9 10.7
2002-08-12 07:20:12 51°11.808 2°46.935 243.3 15.2 241.2 10.6
2002-08-12 07:20:17 51°11.798 2°46.905 243.3 15.1 241.4 10.6
2002-08-12 07:20:22 51°11.788 2°46.876 243.2 15.1 241.2 10.7
2002-08-12 07:20:27 51°11.778 2°46.847 243 15.1 241.1 10.7
2002-08-12 07:20:32 51°11.767 2°46.818 243.2 15.1 241.1 10.7
2002-08-12 07:20:37 51°11.757 2°46.789 242.8 15.1 241 10.7
2002-08-12 07:20:42 51°11.747 2°46.76 242.5 15 240.8 10.7
2002-08-12 07:20:46 51°11.739 2°46.737 242.3 14.9 240.6 10.6
2002-08-12 07:20:52 51°11.727 2°46.703 242.8 14.7 240.9 10.6
2002-08-12 07:20:57 51°11.717 2°46.675 243.2 14.8 241.1 10.6
2002-08-12 07:21:02 51°11.707 2°46.646 243.3 14.8 241.3 10.6
2002-08-12 07:21:06 51°11.699 2°46.624 243.3 14.8 241.3 10.6
2002-08-12 07:21:12 51°11.687 2°46.59 243.5 14.7 241.3 10.6
2002-08-12 07:21:17 51°11.678 2°46.56 243.7 14.8 241.6 10.6
2002-08-12 07:21:22 51°11.668 2°46.532 243.5 14.8 241.3 10.7
2002-08-12 07:21:26 51°11.66 2°46.509 243.5 14.8 241.7 10.7
2002-08-12 07:21:32 51°11.649 2°46.474 243.8 14.7 241.6 10.7
2002-08-12 07:21:37 51°11.639 2°46.446 243.3 14.6 241.4 10.7
2002-08-12 07:21:42 51°11.629 2°46.417 243.5 14.6 241.6 10.7
2002-08-12 07:21:46 51°11.621 2°46.395 242.7 14.5 240.8 10.6
2002-08-12 07:21:52 51°11.61 2°46.362 243.3 14.5 241.6 10.6
2002-08-12 07:21:57 51°11.6 2°46.334 243.2 14.5 241.1 10.6
2002-08-12 07:22:02 51°11.59 2°46.306 243 14.5 241.2 10.6
2002-08-12 07:22:06 51°11.582 2°46.283 243.5 14.5 241.2 10.6
2002-08-12 07:22:12 51°11.571 2°46.249 243.5 14.6 241.4 10.6
2002-08-12 07:22:17 51°11.561 2°46.22 243.7 14.7 241.4 10.7
2002-08-12 07:22:22 51°11.552 2°46.192 243.7 14.5 241.6 10.6
2002-08-12 07:22:26 51°11.544 2°46.17 243.5 14.5 241.5 10.5
2002-08-12 07:22:32 51°11.532 2°46.136 243.5 14.5 241.7 10.5
2002-08-12 07:22:37 51°11.523 2°46.108 243.5 14.5 241.5 10.5
2002-08-12 07:22:42 51°11.513 2°46.08 243.5 14.5 241.6 10.2
2002-08-12 07:22:46 51°11.505 2°46.057 243.3 14.5 241.4 10.4
2002-08-12 07:22:52 51°11.494 2°46.023 243.5 14.5 241.6 10.4
2002-08-12 07:22:57 51°11.484 2°45.995 243.2 14.5 241.2 10.3
2002-08-12 07:23:02 51°11.475 2°45.966 243.5 14.6 241.7 10.3
2002-08-12 07:23:06 51°11.467 2°45.944 243.3 14.6 241.4 10.3
2002-08-12 07:23:12 51°11.455 2°45.91 243.3 14.5 241.6 10.2
2002-08-12 07:23:17 51°11.446 2°45.882 243.7 14.6 241.6 10.2
2002-08-12 07:23:22 51°11.436 2°45.854 243.7 14.5 241.7 10.2
2002-08-12 07:23:26 51°11.429 2°45.831 243.2 14.5 241.5 10.2
2002-08-12 07:23:32 51°11.417 2°45.798 242.7 14.5 240.9 10.2
2002-08-12 07:23:37 51°11.407 2°45.77 242.2 14.5 240.7 10.1
2002-08-12 07:23:42 51°11.397 2°45.741 242.7 14.6 241 10.1
2002-08-12 07:23:47 51°11.387 2°45.713 243 14.6 241.1 10.1
2002-08-12 07:23:52 51°11.377 2°45.685 243 14.6 241.3 10.1
2002-08-12 07:23:57 51°11.367 2°45.657 243 14.5 241.3 10.1
2002-08-12 07:24:02 51°11.358 2°45.629 242.7 14.5 241.2 10
2002-08-12 07:24:06 51°11.35 2°45.606 242.8 14.6 241.1 10
2002-08-12 07:24:12 51°11.338 2°45.572 242.8 14.6 241.2 9.9
2002-08-12 07:24:17 51°11.329 2°45.543 243 14.6 241.3 9.9
2002-08-12 07:24:22 51°11.319 2°45.514 243.8 14.7 241.9 9.9
2002-08-12 07:24:26 51°11.311 2°45.491 244.2 14.7 241.9 9.9
2002-08-12 07:24:32 51°11.3 2°45.457 243.8 14.6 242.1 9.9
2002-08-12 07:24:37 51°11.29 2°45.429 243 14.5 241.6 9.8
2002-08-12 07:24:42 51°11.281 2°45.401 242.5 14.4 241.4 9.7
2002-08-12 07:24:46 51°11.273 2°45.379 243 14.5 241.2 9.7
2002-08-12 07:24:52 51°11.261 2°45.345 243.2 14.7 241.4 9.7
2002-08-12 07:24:57 51°11.252 2°45.316 243.2 14.7 241.3 9.7
2002-08-12 07:25:02 51°11.242 2°45.287 244.2 14.7 242 9.7
2002-08-12 07:25:07 51°11.233 2°45.259 244 14.6 242.1 9.7
2002-08-12 07:25:12 51°11.223 2°45.231 243.2 14.4 241.5 9.6
2002-08-12 07:25:17 51°11.213 2°45.203 242.7 14.4 241.2 9.6
2002-08-12 07:25:22 51°11.204 2°45.176 242.7 14.4 241 9.5
2002-08-12 07:25:26 51°11.196 2°45.153 242.2 14.6 240.7 9.5
2002-08-12 07:25:32 51°11.184 2°45.119 242.8 14.7 241.2 9.5
2002-08-12 07:25:37 51°11.174 2°45.09 243.5 14.7 241.4 9.5
2002-08-12 07:25:42 51°11.165 2°45.062 243.7 14.5 242 9.5
2002-08-12 07:25:46 51°11.157 2°45.04 243.3 14.5 241.4 9.4
2002-08-12 07:25:52 51°11.146 2°45.006 243.3 14.5 241.5 9.4
2002-08-12 07:25:56 51°11.138 2°44.983 243 14.5 241.3 9.4
2002-08-12 07:26:02 51°11.127 2°44.949 242.8 14.5 241.2 9.3
2002-08-12 07:26:06 51°11.119 2°44.927 242.8 14.6 241.2 9.3
2002-08-12 07:26:12 51°11.107 2°44.893 242.7 14.6 241.1 9.2
2002-08-12 07:26:17 51°11.097 2°44.865 242.8 14.6 241.3 9.2
2002-08-12 07:26:22 51°11.088 2°44.837 243.2 14.7 241.2 9.2
2002-08-12 07:26:26 51°11.08 2°44.814 243.3 14.7 241.7 9.2
2002-08-12 07:26:32 51°11.068 2°44.78 243.5 14.6 241.5 9.2
2002-08-12 07:26:37 51°11.059 2°44.752 242.8 14.5 241.3 9.1
2002-08-12 07:26:42 51°11.049 2°44.724 242.8 14.5 241.4 9.1
2002-08-12 07:26:46 51°11.041 2°44.701 242.8 14.6 241.2 9
2002-08-12 07:26:52 51°11.029 2°44.667 243 14.7 241.3 9
2002-08-12 07:26:57 51°11.019 2°44.639 242.8 14.7 241.1 9
2002-08-12 07:27:02 51°11.01 2°44.61 243.8 14.7 241.8 9
2002-08-12 07:27:06 51°11.002 2°44.587 244 14.6 241.9 9
2002-08-12 07:27:12 51°10.991 2°44.554 243.2 14.4 241.6 9
2002-08-12 07:27:17 51°10.982 2°44.526 242.5 14.3 241.2 8.9
2002-08-12 07:27:22 51°10.971 2°44.498 241.7 14.4 240.5 8.8
2002-08-12 07:27:26 51°10.964 2°44.476 241.7 14.5 240.4 8.8
2002-08-12 07:27:32 51°10.951 2°44.442 241.8 14.7 240.4 8.7
2002-08-12 07:27:37 51°10.942 2°44.413 243.8 14.8 241.6 8.8
2002-08-12 07:27:42 51°10.932 2°44.385 244.3 14.6 242 8.9
2002-08-12 07:27:47 51°10.923 2°44.356 244.3 14.4 242.4 8.9
2002-08-12 07:27:52 51°10.914 2°44.328 243.8 14.3 242.1 8.7
2002-08-12 07:27:57 51°10.905 2°44.3 243.3 14.3 242 8.7
2002-08-12 07:28:02 51°10.895 2°44.272 242.3 14.4 241.2 8.6
2002-08-12 07:28:07 51°10.885 2°44.244 242.5 14.5 241.1 8.6
2002-08-12 07:28:12 51°10.875 2°44.216 242.8 14.7 241.1 8.5
2002-08-12 07:28:17 51°10.865 2°44.187 244 14.8 241.4 8.6
2002-08-12 07:28:22 51°10.856 2°44.158 244.7 14.7 241.7 8.7
2002-08-12 07:28:26 51°10.849 2°44.136 244.3 14.5 242.3 8.7
2002-08-12 07:28:32 51°10.838 2°44.102 243.5 14.3 242.1 8.5
2002-08-12 07:28:37 51°10.828 2°44.074 243.3 14.4 242 8.4
2002-08-12 07:28:42 51°10.819 2°44.046 243.2 14.5 241.7 8.4
2002-08-12 07:28:46 51°10.811 2°44.023 243.7 14.6 241.7 8.4
2002-08-12 07:28:52 51°10.8 2°43.989 244.2 14.6 242.3 8.4
2002-08-12 07:28:57 51°10.791 2°43.96 244.2 14.5 242.5 8.4
2002-08-12 07:29:02 51°10.781 2°43.932 244 14.4 242.4 8.3
2002-08-12 07:29:06 51°10.774 2°43.91 244 14.4 242.4 8.3
2002-08-12 07:29:12 51°10.762 2°43.875 244 14.5 242.2 8.3
2002-08-12 07:29:17 51°10.753 2°43.847 244.2 14.5 242.3 8.3
2002-08-12 07:29:22 51°10.744 2°43.819 243.7 14.5 242.1 8.3
2002-08-12 07:29:27 51°10.735 2°43.791 243.7 14.4 241.9 8.2
2002-08-12 07:29:32 51°10.725 2°43.763 243.2 14.4 241.5 8.2
2002-08-12 07:29:37 51°10.715 2°43.735 242.8 14.5 241.3 8.2
2002-08-12 07:29:42 51°10.705 2°43.707 242.5 14.6 240.9 8.1
2002-08-12 07:29:46 51°10.697 2°43.684 242.8 14.5 241.1 8.2
2002-08-12 07:29:52 51°10.685 2°43.651 242 14.4 240.6 8.1
2002-08-12 07:29:57 51°10.676 2°43.624 241.8 14.2 240.3 8.1
2002-08-12 07:30:02 51°10.665 2°43.596 241.2 14.3 239.9 8
2002-08-12 07:30:06 51°10.657 2°43.574 241.8 14.5 240 8
2002-08-12 07:30:12 51°10.646 2°43.54 242.8 14.6 240.9 8
2002-08-12 07:30:17 51°10.636 2°43.513 243 14.4 241.1 8.1
2002-08-12 07:30:22 51°10.627 2°43.485 243.7 14.2 242.1 8
2002-08-12 07:30:26 51°10.62 2°43.462 244 14.2 242.3 8
2002-08-12 07:30:32 51°10.609 2°43.428 244.7 14.4 243 7.9
2002-08-12 07:30:37 51°10.6 2°43.399 245.8 14.5 243.6 7.9
2002-08-12 07:30:42 51°10.592 2°43.37 247.3 14.5 245.1 8
2002-08-12 07:30:46 51°10.586 2°43.347 248 14.3 245.8 8
2002-08-12 07:30:52 51°10.576 2°43.313 248.3 14.2 246.5 7.9
2002-08-12 07:30:57 51°10.569 2°43.284 249.2 14.3 247.1 7.9
2002-08-12 07:31:02 51°10.561 2°43.254 250 14.4 247.4 7.9
2002-08-12 07:31:06 51°10.555 2°43.23 251.3 14.5 248.4 7.9
2002-08-12 07:31:12 51°10.546 2°43.195 250.8 14.3 248.4 7.9
2002-08-12 07:31:17 51°10.539 2°43.166 250.2 14.2 248 8
2002-08-12 07:31:22 51°10.531 2°43.137 248.5 14.2 246.5 7.8
2002-08-12 07:31:26 51°10.524 2°43.114 247.7 14.4 245.6 7.8
2002-08-12 07:31:32 51°10.514 2°43.08 247.2 14.5 244.9 7.8
2002-08-12 07:31:37 51°10.505 2°43.051 245.8 14.4 244.3 7.9
2002-08-12 07:31:42 51°10.496 2°43.023 245.3 14.3 243.5 7.9
2002-08-12 07:31:46 51°10.489 2°43.001 244 14.2 242.7 7.8
2002-08-12 07:31:52 51°10.478 2°42.968 243.2 14.2 242 7.8
2002-08-12 07:31:57 51°10.468 2°42.94 243.2 14.3 241.7 7.8
2002-08-12 07:32:02 51°10.459 2°42.912 243.8 14.3 242.2 7.8
2002-08-12 07:32:06 51°10.452 2°42.89 244.8 14.3 242.8 7.8
2002-08-12 07:32:10 51°10.445 2°42.867 246 14.3 243.8 7.8
2002-08-12 07:32:17 51°10.433 2°42.828 245.8 14.2 244.2 7.8
2002-08-12 07:32:22 51°10.425 2°42.799 245.2 14.2 244.2 7.7
2002-08-12 07:32:26 51°10.418 2°42.776 246.7 14.3 244.5 7.7
2002-08-12 07:32:32 51°10.409 2°42.741 248.5 14.3 246.5 7.8
2002-08-12 07:32:37 51°10.401 2°42.713 249.8 14.2 247.5 7.7
2002-08-12 07:32:42 51°10.394 2°42.684 251 14.1 248.9 7.9
2002-08-12 07:32:46 51°10.389 2°42.66 252.3 14.1 249.9 7.7
2002-08-12 07:32:52 51°10.381 2°42.624 252.5 14.2 250.5 7.7
2002-08-12 07:32:57 51°10.375 2°42.594 253.7 14.2 251.1 7.7
2002-08-12 07:33:02 51°10.368 2°42.565 253.3 14.2 251 7.7
2002-08-12 07:33:06 51°10.363 2°42.541 253 14.2 250.8 7.7
2002-08-12 07:33:12 51°10.355 2°42.506 252.3 14.2 250 7.7
2002-08-12 07:33:17 51°10.348 2°42.477 251.5 14.2 249.3 7.7
2002-08-12 07:33:22 51°10.341 2°42.447 250.8 14.3 248.3 7.7
2002-08-12 07:33:26 51°10.334 2°42.424 249.3 14.3 247.4 7.7
2002-08-12 07:33:32 51°10.324 2°42.39 248 14.2 245.7 7.7
2002-08-12 07:33:36 51°10.317 2°42.367 245.8 14.2 244.5 7.8
2002-08-12 07:33:42 51°10.307 2°42.334 244.7 14.2 243.1 7.6
2002-08-12 07:33:47 51°10.298 2°42.306 244.2 14.2 242.7 7.7
2002-08-12 07:33:52 51°10.289 2°42.278 244 14.3 242.6 7.7
2002-08-12 07:33:57 51°10.28 2°42.25 244.3 14.2 242.9 7.6
2002-08-12 07:34:02 51°10.271 2°42.222 245.2 14.2 244.1 7.6
2002-08-12 07:34:06 51°10.265 2°42.199 247.2 14.2 245.1 7.7
2002-08-12 07:34:12 51°10.256 2°42.164 249.5 14.3 247.5 7.7
2002-08-12 07:34:17 51°10.249 2°42.134 251.2 14.2 248.9 7.7
2002-08-12 07:34:22 51°10.243 2°42.105 252.3 14.2 250.4 7.7
2002-08-12 07:34:26 51°10.238 2°42.081 254.2 14.2 251.4 7.7
2002-08-12 07:34:32 51°10.231 2°42.045 255 14.2 252.5 7.8
2002-08-12 07:34:37 51°10.225 2°42.015 255.2 14.2 252.6 7.7
2002-08-12 07:34:42 51°10.219 2°41.985 254.8 14.2 252.4 7.7
2002-08-12 07:34:46 51°10.214 2°41.961 254.2 14.3 252 7.7
2002-08-12 07:34:52 51°10.206 2°41.925 254 14.4 251.1 7.7
2002-08-12 07:34:57 51°10.199 2°41.895 252.2 14.3 250.3 7.9
2002-08-12 07:35:02 51°10.192 2°41.867 250.5 14.2 248.8 7.8
2002-08-12 07:35:06 51°10.186 2°41.843 248.8 14.3 247.6 7.7
2002-08-12 07:35:12 51°10.176 2°41.808 248.5 14.4 246.6 7.7
2002-08-12 07:35:17 51°10.167 2°41.78 246.7 14.4 245.3 7.8
2002-08-12 07:35:22 51°10.159 2°41.751 246 14.3 244.6 7.8
2002-08-12 07:35:26 51°10.152 2°41.729 245.7 14.3 244.1 7.7
2002-08-12 07:35:32 51°10.142 2°41.695 244.7 14.2 243.7 7.7
2002-08-12 07:35:37 51°10.133 2°41.667 244.5 14.2 243.4 7.7
2002-08-12 07:35:42 51°10.124 2°41.638 245.2 14.4 243.9 7.8
2002-08-12 07:35:46 51°10.117 2°41.615 246.7 14.4 245 7.7
2002-08-12 07:35:52 51°10.108 2°41.58 248 14.4 246 7.7
2002-08-12 07:35:57 51°10.101 2°41.55 249.8 14.2 248.1 7.8
2002-08-12 07:36:02 51°10.094 2°41.521 252.3 14.3 250.5 7.9
2002-08-12 07:36:06 51°10.09 2°41.496 254.8 14.3 252.6 7.8
2002-08-12 07:36:12 51°10.084 2°41.46 256.3 14.3 254.6 7.8
2002-08-12 07:36:17 51°10.079 2°41.429 258.5 14.3 255.8 7.8
2002-08-12 07:36:22 51°10.074 2°41.398 259 14.3 256.6 7.8
2002-08-12 07:36:25 51°10.072 2°41.38 259.2 14.2 256.6 7.9
2002-08-12 07:36:32 51°10.065 2°41.337 258.7 14.3 256.2 7.9
2002-08-12 07:36:37 51°10.06 2°41.306 258 14.3 255.6 7.9
2002-08-12 07:36:42 51°10.054 2°41.276 256.7 14.4 254.3 8
2002-08-12 07:36:46 51°10.05 2°41.252 255.7 14.4 253.1 8
2002-08-12 07:36:52 51°10.042 2°41.216 253.7 14.4 251.6 8
2002-08-12 07:36:57 51°10.035 2°41.186 252.7 14.4 250.8 8
2002-08-12 07:37:02 51°10.028 2°41.156 251.3 14.4 249.6 8
2002-08-12 07:37:06 51°10.023 2°41.132 250.5 14.4 249.1 8.1
2002-08-12 07:37:12 51°10.014 2°41.097 250.5 14.5 248.6 8.2
2002-08-12 07:37:17 51°10.007 2°41.067 250.7 14.4 248.9 8.1
2002-08-12 07:37:22 51°10 2°41.037 251 14.3 249.1 8.1
2002-08-12 07:37:27 51°9.993 2°41.007 251.7 14.4 249.8 8.1
2002-08-12 07:37:32 51°9.986 2°40.977 252.5 14.5 250.6 8.1
2002-08-12 07:37:37 51°9.98 2°40.947 253.3 14.5 251.2 8.1
2002-08-12 07:37:42 51°9.974 2°40.916 253.7 14.5 251.7 8.1
2002-08-12 07:37:46 51°9.969 2°40.892 254.8 14.5 252.5 8.2
2002-08-12 07:37:52 51°9.962 2°40.855 255.3 14.4 253 8.2
2002-08-12 07:37:57 51°9.956 2°40.825 254.3 14.4 252.5 8.1
2002-08-12 07:38:02 51°9.95 2°40.794 254.8 14.5 252.7 8.3
2002-08-12 07:38:06 51°9.944 2°40.77 253.5 14.5 251.6 8.2
2002-08-12 07:38:12 51°9.937 2°40.734 252.3 14.5 250.9 8.3
2002-08-12 07:38:17 51°9.929 2°40.704 250.8 14.5 249.5 8.2
2002-08-12 07:38:22 51°9.922 2°40.674 251 14.6 249.2 8.2
2002-08-12 07:38:26 51°9.916 2°40.65 250.7 14.5 249.1 8.4
2002-08-12 07:38:32 51°9.907 2°40.614 250.3 14.5 248.7 8.3
2002-08-12 07:38:37 51°9.901 2°40.584 251.5 14.5 249.9 8.3
2002-08-12 07:38:42 51°9.894 2°40.554 251.8 14.5 250.1 8.3
2002-08-12 07:38:46 51°9.888 2°40.53 252.5 14.5 250.4 8.4
2002-08-12 07:38:52 51°9.881 2°40.493 252.7 14.5 251 8.4
2002-08-12 07:38:57 51°9.874 2°40.463 253.2 14.6 251.2 8.3
2002-08-12 07:39:02 51°9.868 2°40.433 252.8 14.5 250.9 8.4
2002-08-12 07:39:07 51°9.861 2°40.402 252.2 14.6 250.6 8.4
2002-08-12 07:39:12 51°9.854 2°40.372 252.3 14.6 250.6 8.4
2002-08-12 07:39:17 51°9.847 2°40.342 251.8 14.5 250.2 8.4
2002-08-12 07:39:22 51°9.841 2°40.311 252 14.6 250.3 8.4
2002-08-12 07:39:27 51°9.834 2°40.281 252.3 14.6 250.4 8.4
2002-08-12 07:39:32 51°9.827 2°40.251 252 14.6 250.4 8.6
2002-08-12 07:39:37 51°9.82 2°40.22 252.7 14.6 250.7 8.5
2002-08-12 07:39:42 51°9.814 2°40.19 252.5 14.6 251 8.5
2002-08-12 07:39:46 51°9.809 2°40.165 252.8 14.6 251.3 8.5
2002-08-12 07:39:52 51°9.801 2°40.129 253 14.6 251.3 8.5
2002-08-12 07:39:57 51°9.794 2°40.098 252.8 14.6 251.1 8.5
2002-08-12 07:40:02 51°9.788 2°40.068 253.2 14.6 251.5 8.6
2002-08-12 07:40:06 51°9.783 2°40.043 253 14.6 251.2 8.6
2002-08-12 07:40:12 51°9.775 2°40.007 253.3 14.6 251.5 8.5
2002-08-12 07:40:17 51°9.769 2°39.976 253.3 14.6 251.6 8.5
2002-08-12 07:40:22 51°9.762 2°39.945 253 14.6 251.4 8.5
2002-08-12 07:40:26 51°9.757 2°39.921 253 14.6 251.4 8.6
2002-08-12 07:40:32 51°9.749 2°39.884 252.8 14.6 251.2 8.6
2002-08-12 07:40:37 51°9.742 2°39.854 252.8 14.6 251.1 8.6
2002-08-12 07:40:42 51°9.736 2°39.824 252.2 14.6 250.6 8.6
2002-08-12 07:40:46 51°9.73 2°39.799 252.2 14.7 250.4 8.6
2002-08-12 07:40:52 51°9.722 2°39.762 252.2 14.7 250.5 8.7
2002-08-12 07:40:57 51°9.715 2°39.732 252.5 14.7 250.8 8.6
2002-08-12 07:41:02 51°9.709 2°39.701 252.7 14.7 251.1 8.7
2002-08-12 07:41:06 51°9.703 2°39.676 253.2 14.7 251.3 8.7
2002-08-12 07:41:12 51°9.696 2°39.639 253.3 14.8 251.5 8.6
2002-08-12 07:41:17 51°9.689 2°39.608 253 14.8 251.4 8.6
2002-08-12 07:41:22 51°9.683 2°39.577 253.5 14.8 251.7 8.8
2002-08-12 07:41:26 51°9.678 2°39.553 252.8 14.7 251.3 8.7
2002-08-12 07:41:32 51°9.67 2°39.515 253.2 14.8 251.2 8.8
2002-08-12 07:41:37 51°9.663 2°39.484 253.5 14.8 251.6 8.8
2002-08-12 07:41:42 51°9.657 2°39.453 253 14.8 251.5 8.8
2002-08-12 07:41:46 51°9.652 2°39.428 253.3 14.8 251.7 8.8
2002-08-12 07:41:52 51°9.643 2°39.391 252.8 14.8 251.4 8.8
2002-08-12 07:41:57 51°9.637 2°39.36 253.3 14.8 251.6 8.9
2002-08-12 07:42:02 51°9.63 2°39.329 252.8 14.8 251.3 8.8
2002-08-12 07:42:06 51°9.625 2°39.304 252.7 14.9 251.3 8.8
2002-08-12 07:42:12 51°9.617 2°39.267 252.5 14.8 250.9 8.9
2002-08-12 07:42:17 51°9.61 2°39.236 252.3 14.8 250.8 8.9
2002-08-12 07:42:22 51°9.603 2°39.206 252.3 14.8 250.6 8.9
2002-08-12 07:42:27 51°9.597 2°39.174 252.3 14.8 250.9 8.9
2002-08-12 07:42:32 51°9.59 2°39.144 252.8 14.8 251.1 9
2002-08-12 07:42:37 51°9.584 2°39.113 252.7 14.8 251.3 9
2002-08-12 07:42:42 51°9.577 2°39.081 253 14.8 251.3 9
2002-08-12 07:42:46 51°9.572 2°39.056 253.5 14.9 251.8 9
2002-08-12 07:42:52 51°9.564 2°39.019 253.2 14.9 251.7 9.1
2002-08-12 07:42:57 51°9.558 2°38.988 253.7 14.9 251.8 9.2
2002-08-12 07:43:02 51°9.551 2°38.957 253.2 14.9 251.5 9.2
2002-08-12 07:43:06 51°9.546 2°38.932 253 14.9 251.4 9.2
2002-08-12 07:43:12 51°9.538 2°38.895 252.8 14.9 251.3 9.2
2002-08-12 07:43:17 51°9.531 2°38.863 252.7 14.9 251.1 9.2
2002-08-12 07:43:22 51°9.524 2°38.832 252.8 14.9 251.1 9.2
2002-08-12 07:43:27 51°9.518 2°38.801 252.8 14.9 251.2 9.2
2002-08-12 07:43:32 51°9.511 2°38.77 252.5 14.9 251 9.3
2002-08-12 07:43:37 51°9.504 2°38.739 252.8 14.9 251.1 9.3
2002-08-12 07:43:42 51°9.498 2°38.707 252.8 15 251.2 9.3
2002-08-12 07:43:47 51°9.491 2°38.676 253.3 14.9 251.6 9.3
2002-08-12 07:43:52 51°9.485 2°38.645 253.2 14.9 251.5 9.4
2002-08-12 07:43:57 51°9.478 2°38.614 252.5 14.9 251.1 9.3
2002-08-12 07:44:02 51°9.471 2°38.583 252.8 14.9 251.2 9.3
2002-08-12 07:44:06 51°9.466 2°38.558 252.2 14.9 250.8 9.4
2002-08-12 07:44:12 51°9.458 2°38.52 252.7 15 251.1 9.4
2002-08-12 07:44:17 51°9.451 2°38.489 252.5 15 251 9.4
2002-08-12 07:44:22 51°9.444 2°38.458 252.7 15 251 9.4
2002-08-12 07:44:27 51°9.437 2°38.427 252.7 14.9 251 9.4
2002-08-12 07:44:32 51°9.43 2°38.396 252.7 14.9 250.8 9.4
2002-08-12 07:44:37 51°9.423 2°38.365 250.8 14.9 249.9 9.4
2002-08-12 07:44:42 51°9.415 2°38.334 250 14.9 248.8 9.4
2002-08-12 07:44:46 51°9.409 2°38.31 248.8 14.9 247.9 9.4
2002-08-12 07:44:52 51°9.399 2°38.274 247.8 14.9 246.9 9.4
2002-08-12 07:44:57 51°9.391 2°38.244 247.7 14.9 246.5 9.4
2002-08-12 07:45:02 51°9.383 2°38.213 247.5 14.9 246.4 9.4
2002-08-12 07:45:06 51°9.376 2°38.189 247.2 14.9 246 9.4
2002-08-12 07:45:12 51°9.366 2°38.153 247.2 14.9 245.9 9.4
2002-08-12 07:45:17 51°9.358 2°38.123 247.3 14.9 246.2 9.4
2002-08-12 07:45:22 51°9.349 2°38.093 247.2 14.9 246.1 9.4
2002-08-12 07:45:26 51°9.343 2°38.069 247.7 14.9 246.6 9.3
2002-08-12 07:45:32 51°9.333 2°38.033 247.8 14.9 246.5 9.4
2002-08-12 07:45:37 51°9.325 2°38.002 248 14.9 246.7 9.3
2002-08-12 07:45:42 51°9.316 2°37.972 247.7 14.9 246.4 9.3
2002-08-12 07:45:46 51°9.309 2°37.948 246.7 14.8 245.9 9.3
2002-08-12 07:45:52 51°9.298 2°37.913 245.8 14.8 244.7 9.3
2002-08-12 07:45:57 51°9.29 2°37.884 245.2 14.8 244.5 9.3
2002-08-12 07:46:02 51°9.28 2°37.854 244.7 14.9 243.6 9.2
2002-08-12 07:46:07 51°9.271 2°37.825 245 14.9 243.8 9.2
2002-08-12 07:46:12 51°9.262 2°37.796 244 14.8 243.2 9.2
2002-08-12 07:46:17 51°9.253 2°37.767 244.7 14.8 243.8 9.2
2002-08-12 07:46:22 51°9.244 2°37.738 244.5 14.8 243.3 9.1
2002-08-12 07:46:26 51°9.237 2°37.714 244.7 14.8 243.8 9.1
2002-08-12 07:46:32 51°9.226 2°37.679 244.8 14.7 243.6 9
2002-08-12 07:46:37 51°9.217 2°37.652 244.5 14.3 243.6 9
2002-08-12 07:46:42 51°9.209 2°37.625 245.2 13.6 244.1 9
2002-08-12 07:46:47 51°9.201 2°37.599 245.5 13.2 244.2 9
2002-08-12 07:46:52 51°9.194 2°37.574 245.3 12.8 244.3 9.1
2002-08-12 07:46:57 51°9.187 2°37.55 245.7 12.3 244.5 9.2
2002-08-12 07:47:02 51°9.18 2°37.528 245.8 11.4 244.5 9.3
2002-08-12 07:47:06 51°9.175 2°37.512 245.7 10.8 244.5 9.4
2002-08-12 07:47:12 51°9.168 2°37.488 245.8 10.2 244.5 9.3
2002-08-12 07:47:17 51°9.163 2°37.469 245.7 9.7 244.3 9.3
2002-08-12 07:47:22 51°9.157 2°37.451 245.2 9.2 243.8 9.3
2002-08-12 07:47:26 51°9.153 2°37.437 244.7 8.8 243.7 9.3
2002-08-12 07:47:32 51°9.147 2°37.418 244.2 8.4 243 9.3
2002-08-12 07:47:37 51°9.142 2°37.402 243.8 8.1 242.9 9.3
2002-08-12 07:47:42 51°9.136 2°37.388 242.8 7.7 241.8 9.2
2002-08-12 07:47:47 51°9.131 2°37.373 241.8 7.4 241 9.2
2002-08-12 07:47:52 51°9.126 2°37.36 240.3 7.1 239.8 9.2
2002-08-12 07:47:57 51°9.121 2°37.348 238.7 6.9 238.7 9.1
2002-08-12 07:48:02 51°9.116 2°37.335 237.3 6.6 237.4 9.2
2002-08-12 07:48:06 51°9.112 2°37.326 235.5 6.4 236.3 9.1
2002-08-12 07:48:12 51°9.106 2°37.313 233.7 6.2 235 9.1
2002-08-12 07:48:17 51°9.101 2°37.303 232 6 233.6 9.1
2002-08-12 07:48:22 51°9.096 2°37.293 230.3 5.8 232 9
2002-08-12 07:48:27 51°9.092 2°37.283 228.5 5.5 230.7 9.1
2002-08-12 07:48:32 51°9.087 2°37.274 226.5 5.3 230 9
2002-08-12 07:48:37 51°9.083 2°37.266 225.8 5 229.2 9
2002-08-12 07:48:42 51°9.079 2°37.258 227.2 4.7 229.8 8.9
2002-08-12 07:48:47 51°9.075 2°37.251 230.5 4.3 231.5 8.9
2002-08-12 07:48:52 51°9.072 2°37.245 234 3.8 234.4 8.9
2002-08-12 07:48:57 51°9.07 2°37.239 238.5 3.4 236.8 8.9
2002-08-12 07:49:02 51°9.069 2°37.234 243 2.8 240.2 8.9
2002-08-12 07:49:06 51°9.067 2°37.23 246.2 2.4 241 8.9
2002-08-12 07:49:12 51°9.066 2°37.227 248.8 1.8 241.3 8.9
2002-08-12 07:49:17 51°9.065 2°37.224 251.2 1.5 240.1 8.9
2002-08-12 07:49:22 51°9.064 2°37.223 252.8 1 233.9 8.9
2002-08-12 07:49:27 51°9.064 2°37.222 253.5 0.7 226.7 8.9
2002-08-12 07:49:32 51°9.063 2°37.221 253.7 0.4 208 8.9
2002-08-12 07:49:37 51°9.063 2°37.221 253.7 0.3 189.1 8.9
2002-08-12 07:49:42 51°9.063 2°37.221 252.7 0.3 187.2 -999
2002-08-12 07:49:47 51°9.062 2°37.221 251.2 0.3 190.8 -999
2002-08-12 07:49:53 51°9.062 2°37.22 249.7 0.4 211.9 -999
2002-08-12 07:49:58 51°9.061 2°37.219 249 0.6 229.9 -999
2002-08-12 07:50:03 51°9.06 2°37.216 249.5 1.1 238.4 -999
2002-08-12 07:50:08 51°9.059 2°37.212 251.2 1.5 239.7 -999
2002-08-12 07:50:13 51°9.058 2°37.208 254 2.1 244.9 -999
2002-08-12 07:50:18 51°9.056 2°37.201 257.8 2.6 248.2 -999
2002-08-12 07:50:23 51°9.055 2°37.194 263.2 3.1 252 -999
2002-08-12 07:50:27 51°9.054 2°37.188 267.7 3.5 256.9 8.8
2002-08-12 07:50:32 51°9.054 2°37.179 272.5 3.8 261.3 8.8
2002-08-12 07:50:37 51°9.053 2°37.17 278 4 265.7 8.8
2002-08-12 07:50:42 51°9.054 2°37.16 284 4.3 272.5 8.8
2002-08-12 07:50:46 51°9.055 2°37.152 290.7 4.4 277.6 8.9
2002-08-12 07:50:52 51°9.057 2°37.14 297 4.6 285.4 8.9
2002-08-12 07:50:57 51°9.06 2°37.131 304.5 4.7 290.6 8.9
2002-08-12 07:51:02 51°9.063 2°37.122 311.3 4.8 298.2 8.9
2002-08-12 07:51:06 51°9.066 2°37.115 318.3 4.8 303.6 9
2002-08-12 07:51:12 51°9.072 2°37.105 325.2 4.8 311.4 9
2002-08-12 07:51:17 51°9.077 2°37.098 332.3 4.8 318.1 9
2002-08-12 07:51:22 51°9.082 2°37.092 339.8 4.8 325.2 9.1
2002-08-12 07:51:26 51°9.087 2°37.089 347.2 4.7 331.1 9.1
2002-08-12 07:51:32 51°9.095 2°37.086 355 4.6 340.6 9.2
2002-08-12 07:51:37 51°9.101 2°37.084 3 4.6 346.9 9.3
2002-08-12 07:51:42 51°9.107 2°37.084 10.7 4.5 356.5 9.3
2002-08-12 07:51:46 51°9.112 2°37.085 18.5 4.4 2.8 9.4
2002-08-12 07:51:52 51°9.119 2°37.088 25.7 4.3 12.6 9.4
2002-08-12 07:51:57 51°9.125 2°37.092 33.5 4.3 19.7 9.4
2002-08-12 07:52:02 51°9.13 2°37.097 41 4.2 30.7 9.4
2002-08-12 07:52:06 51°9.133 2°37.102 49.5 4.2 37.8 9.5
2002-08-12 07:52:12 51°9.138 2°37.111 57 4.2 49.2 9.5
2002-08-12 07:52:17 51°9.14 2°37.119 64.5 4.2 56.5 9.6
2002-08-12 07:52:22 51°9.143 2°37.128 72.2 4.2 67.7 9.6
2002-08-12 07:52:27 51°9.144 2°37.138 79.8 4.2 77.4 9.6
2002-08-12 07:52:32 51°9.143 2°37.147 87.3 4.3 87.3 9.5
2002-08-12 07:52:37 51°9.142 2°37.157 94.8 4.4 93.5 9.5
2002-08-12 07:52:42 51°9.141 2°37.167 99.8 4.6 102.3 9.5
2002-08-12 07:52:46 51°9.139 2°37.175 104 4.8 105.8 9.4
2002-08-12 07:52:52 51°9.136 2°37.187 107 5 110.5 9.4
2002-08-12 07:52:57 51°9.133 2°37.198 110.2 5.2 112.9 9.3
2002-08-12 07:53:02 51°9.129 2°37.208 113.5 5.2 118 9.3
2002-08-12 07:53:06 51°9.126 2°37.215 117 5.1 120.7 9.2
2002-08-12 07:53:12 51°9.121 2°37.225 121.5 4.9 128.3 9.2
2002-08-12 07:53:17 51°9.116 2°37.232 126.8 4.7 132 9.2
2002-08-12 07:53:22 51°9.111 2°37.239 130.8 4.6 138.4 9.1
2002-08-12 07:53:27 51°9.106 2°37.245 133.2 4.5 141.6 9.1
2002-08-12 07:53:32 51°9.101 2°37.25 135 4.3 144.2 9
2002-08-12 07:53:37 51°9.097 2°37.255 137.7 4.2 146.5 9
2002-08-12 07:53:42 51°9.092 2°37.259 139.5 3.9 150 9
2002-08-12 07:53:46 51°9.088 2°37.262 139.7 3.7 150.8 8.9
2002-08-12 07:53:52 51°9.084 2°37.266 138.2 3.3 151.8 8.9
2002-08-12 07:53:57 51°9.081 2°37.269 135.2 3 150.5 8.9
2002-08-12 07:54:02 51°9.078 2°37.271 130.8 2.4 149.5 8.9
2002-08-12 07:54:06 51°9.076 2°37.273 125.7 2 149.3 8.8
2002-08-12 07:54:12 51°9.074 2°37.275 120.7 1.6 150.9 8.9
2002-08-12 07:54:17 51°9.073 2°37.275 116.8 1.1 158.1 8.9
2002-08-12 07:54:22 51°9.072 2°37.274 113.5 0.8 171.7 8.8
2002-08-12 07:54:26 51°9.072 2°37.273 110.5 0.7 212.5 8.8
2002-08-12 07:54:32 51°9.071 2°37.271 108.2 0.9 241.6 8.9
2002-08-12 07:54:37 51°9.071 2°37.269 106.2 1 246.5 8.8
2002-08-12 07:54:42 51°9.07 2°37.267 104.8 1 244.7 8.8
2002-08-12 07:54:46 51°9.069 2°37.266 103.8 0.9 242.5 8.8
2002-08-12 07:54:52 51°9.069 2°37.265 102.3 0.8 235.4 8.8
2002-08-12 07:54:57 51°9.069 2°37.265 99.5 0.5 218.9 8.9
2002-08-12 07:55:02 51°9.068 2°37.265 95.8 0.4 179.4 8.8
2002-08-12 07:55:06 51°9.068 2°37.266 89.7 0.6 115.9 8.9
2002-08-12 07:55:12 51°9.068 2°37.27 83 1.1 90.9 8.8
2002-08-12 07:55:17 51°9.069 2°37.273 74.7 1.4 78 8.8
2002-08-12 07:55:22 51°9.07 2°37.276 67 1.6 63.9 8.8
2002-08-12 07:55:26 51°9.071 2°37.278 61.3 1.6 55.7 8.8
2002-08-12 07:55:32 51°9.073 2°37.281 56.3 1.6 46.6 8.8
2002-08-12 07:55:37 51°9.074 2°37.283 52.2 1.5 41.2 8.9
2002-08-12 07:55:42 51°9.076 2°37.285 48.5 1.4 34.7 8.9
2002-08-12 07:55:47 51°9.078 2°37.286 45.5 1.4 31.3 8.8
2002-08-12 07:55:52 51°9.08 2°37.288 43 1.4 27 8.8
2002-08-12 07:55:57 51°9.081 2°37.289 40 1.4 24.1 8.9
2002-08-12 07:56:02 51°9.083 2°37.29 37.5 1.4 20.7 8.9
2002-08-12 07:56:06 51°9.085 2°37.29 34.7 1.4 17 8.9
2002-08-12 07:56:12 51°9.087 2°37.291 33.2 1.5 13.2 8.9
2002-08-12 07:56:17 51°9.089 2°37.292 32 1.4 12 9
2002-08-12 07:56:22 51°9.091 2°37.292 31 1.3 9.2 9
2002-08-12 07:56:26 51°9.092 2°37.292 30.3 1.2 4.6 9
2002-08-12 07:56:32 51°9.093 2°37.292 29.8 0.8 349.6 9
2002-08-12 07:56:36 51°9.094 2°37.291 29.3 0.6 334.8 9
2002-08-12 07:56:41 51°9.094 2°37.29 29.3 0.5 323.3 9
2002-08-12 07:56:46 51°9.095 2°37.289 28.7 0.5 322.4 9
2002-08-12 07:56:52 51°9.095 2°37.289 28.3 0.5 329.9 9
2002-08-12 07:56:57 51°9.096 2°37.288 27.8 0.5 332.2 9
2002-08-12 07:57:02 51°9.097 2°37.287 27.2 0.6 334.6 9
2002-08-12 07:57:07 51°9.098 2°37.287 26.7 0.6 335 9
2002-08-12 07:57:12 51°9.098 2°37.286 25.5 0.6 335 9
2002-08-12 07:57:17 51°9.099 2°37.286 24.7 0.6 334 9
2002-08-12 07:57:22 51°9.1 2°37.285 23.8 0.6 332.1 9
2002-08-12 07:57:27 51°9.1 2°37.284 23 0.6 332.3 9
2002-08-12 07:57:32 51°9.101 2°37.284 21.8 0.7 333.6 9
2002-08-12 07:57:37 51°9.102 2°37.283 21 0.7 335.7 9
2002-08-12 07:57:42 51°9.103 2°37.282 20.2 0.7 334.5 9
2002-08-12 07:57:47 51°9.104 2°37.281 19.5 0.7 335 9.1
2002-08-12 07:57:52 51°9.105 2°37.281 18.7 0.8 334 9.1
2002-08-12 07:57:57 51°9.106 2°37.28 18.3 0.8 334.2 9.1
2002-08-12 07:58:02 51°9.107 2°37.279 17.8 0.8 334.3 9.1
2002-08-12 07:58:06 51°9.108 2°37.278 17.5 0.8 333.9 9.1
2002-08-12 07:58:12 51°9.109 2°37.277 17.3 0.8 334.3 9.1
2002-08-12 07:58:17 51°9.11 2°37.277 17.2 0.8 334.7 9.1
2002-08-12 07:58:22 51°9.111 2°37.276 17.3 0.8 336.8 9
2002-08-12 07:58:27 51°9.112 2°37.275 17.2 0.8 337.2 9.1
2002-08-12 07:58:32 51°9.114 2°37.275 17.2 0.8 336.7 9.1
2002-08-12 07:58:37 51°9.115 2°37.274 17.3 0.8 336 9.1
2002-08-12 07:58:42 51°9.116 2°37.273 17.7 0.9 336.5 9.2
2002-08-12 07:58:46 51°9.117 2°37.272 18 0.9 335.7 9.1
2002-08-12 07:58:52 51°9.118 2°37.271 17.8 0.9 335.6 9.1
2002-08-12 07:58:57 51°9.12 2°37.271 18 0.9 336.7 9.2
2002-08-12 07:59:02 51°9.121 2°37.27 18.2 0.9 337.3 9.2
2002-08-12 07:59:07 51°9.122 2°37.269 18.3 0.9 337.2 9.2
2002-08-12 07:59:12 51°9.123 2°37.268 18.5 0.9 337.3 9.2
2002-08-12 07:59:17 51°9.124 2°37.267 18.2 0.9 338 9.2
2002-08-12 07:59:22 51°9.126 2°37.267 18.3 0.9 338.4 9.2
2002-08-12 07:59:27 51°9.127 2°37.266 17.8 1 338.4 9.2
2002-08-12 07:59:32 51°9.128 2°37.265 17.8 1 337.4 9.2
2002-08-12 07:59:37 51°9.129 2°37.264 17.7 1 337.8 9.2
2002-08-12 07:59:42 51°9.131 2°37.264 17.7 1 337.9 9.2
2002-08-12 07:59:46 51°9.132 2°37.263 17.5 1 338.7 9.2
2002-08-12 07:59:52 51°9.134 2°37.262 17.7 1 339.7 9.3
2002-08-12 07:59:57 51°9.135 2°37.262 17.5 1 339.3 9.3
2002-08-12 08:00:02 51°9.137 2°37.262 17.3 1 339.4 9.3
2002-08-12 08:00:06 51°9.138 2°37.261 17.3 1 339.7 9.3
2002-08-12 08:00:12 51°9.14 2°37.26 17.5 1 339.3 9.3
2002-08-12 08:00:17 51°9.141 2°37.259 17.3 1 338.6 9.3
2002-08-12 08:00:22 51°9.142 2°37.258 17.7 1 338.8 9.3
2002-08-12 08:00:26 51°9.143 2°37.258 17.7 1 340 9.3
2002-08-12 08:00:32 51°9.145 2°37.257 17.8 1.1 339.6 9.3
2002-08-12 08:00:37 51°9.146 2°37.256 17.5 1.1 339.3 9.3
2002-08-12 08:00:42 51°9.148 2°37.255 17.7 1.1 338.8 9.3
2002-08-12 08:00:46 51°9.149 2°37.254 17.3 1.1 341.7 9.3
2002-08-12 08:00:52 51°9.151 2°37.254 17.5 1.1 342.8 9.3
2002-08-12 08:00:57 51°9.152 2°37.253 17.5 1 343.4 9.3
2002-08-12 08:01:02 51°9.153 2°37.252 17.7 1.1 342.7 9.4
2002-08-12 08:01:06 51°9.154 2°37.251 17.8 1.1 344.1 9.4
2002-08-12 08:01:12 51°9.156 2°37.251 17.8 1.1 343.8 9.4
2002-08-12 08:01:17 51°9.158 2°37.25 18 1.1 343.5 9.4
2002-08-12 08:01:22 51°9.159 2°37.249 18 1 344 9.4
2002-08-12 08:01:27 51°9.16 2°37.248 18.3 1.1 344.8 9.4
2002-08-12 08:01:32 51°9.162 2°37.248 18.3 1.1 344.3 9.5
2002-08-12 08:01:37 51°9.163 2°37.247 18.5 1.1 344.9 9.5
2002-08-12 08:01:42 51°9.165 2°37.246 18.5 1.1 343.8 9.5
2002-08-12 08:01:47 51°9.166 2°37.245 18.8 1.1 344.6 9.5
2002-08-12 08:01:52 51°9.167 2°37.244 18.7 1.1 345.2 9.5
2002-08-12 08:01:57 51°9.169 2°37.244 18.8 1.1 344.5 9.5
2002-08-12 08:02:02 51°9.17 2°37.243 19 1.1 343.9 9.6
2002-08-12 08:02:07 51°9.172 2°37.243 18.8 1.1 344.2 9.6
2002-08-12 08:02:12 51°9.173 2°37.242 18.8 1.1 343.3 9.6
2002-08-12 08:02:17 51°9.175 2°37.242 18.7 1 342.9 9.6
2002-08-12 08:02:22 51°9.177 2°37.242 18.8 1 340.6 9.6
2002-08-12 08:02:26 51°9.178 2°37.241 18.8 1 340.2 9.6
2002-08-12 08:02:32 51°9.179 2°37.24 18.5 1 338.2 9.6
2002-08-12 08:02:37 51°9.18 2°37.239 18.5 0.9 337.5 9.6
2002-08-12 08:02:42 51°9.181 2°37.238 18.3 0.9 335.4 9.6
2002-08-12 08:02:46 51°9.182 2°37.237 18 0.9 334.7 9.6
2002-08-12 08:02:52 51°9.183 2°37.236 17.7 0.9 333.2 9.7
2002-08-12 08:02:57 51°9.184 2°37.235 17.7 0.8 332.6 9.7
2002-08-12 08:03:02 51°9.185 2°37.234 17.5 0.8 331.9 9.6
2002-08-12 08:03:06 51°9.186 2°37.233 17.2 0.8 332.3 9.6
2002-08-12 08:03:12 51°9.187 2°37.232 17.2 0.8 327.8 9.6
2002-08-12 08:03:17 51°9.188 2°37.231 17.2 0.7 325.4 9.7
2002-08-12 08:03:22 51°9.189 2°37.23 17.3 0.7 325.6 9.7
2002-08-12 08:03:27 51°9.19 2°37.23 17.2 0.7 322.5 9.7
2002-08-12 08:03:32 51°9.191 2°37.229 17 0.7 321.2 9.7
2002-08-12 08:03:37 51°9.191 2°37.228 16.8 0.7 319.5 9.8
2002-08-12 08:03:42 51°9.192 2°37.227 16.7 0.7 317.3 9.8
2002-08-12 08:03:47 51°9.193 2°37.225 16.2 0.7 314.7 9.8
2002-08-12 08:03:52 51°9.193 2°37.224 15.7 0.7 313.6 9.8
2002-08-12 08:03:57 51°9.194 2°37.222 15.5 0.7 312.1 9.8
2002-08-12 08:04:02 51°9.194 2°37.221 15.3 0.7 310.9 9.8
2002-08-12 08:04:06 51°9.195 2°37.22 15 0.7 310.4 9.8
2002-08-12 08:04:12 51°9.195 2°37.219 14.8 0.6 309.5 9.8
2002-08-12 08:04:17 51°9.196 2°37.218 14.7 0.6 308.1 9.8
2002-08-12 08:04:22 51°9.196 2°37.216 14.8 0.6 305.5 9.8
2002-08-12 08:04:26 51°9.197 2°37.215 14.5 0.6 303.9 9.8
2002-08-12 08:04:32 51°9.197 2°37.214 14.5 0.6 302.2 9.8
2002-08-12 08:04:37 51°9.198 2°37.213 14.5 0.6 300.7 9.8
2002-08-12 08:04:42 51°9.198 2°37.212 14.5 0.6 299.8 9.8
2002-08-12 08:04:47 51°9.198 2°37.21 14.5 0.6 300.7 9.8
2002-08-12 08:04:52 51°9.199 2°37.209 14 0.7 309.6 9.9
2002-08-12 08:04:57 51°9.2 2°37.208 12.3 0.9 321.6 9.9
2002-08-12 08:05:02 51°9.202 2°37.206 8.3 1.4 334.2 9.9
2002-08-12 08:05:06 51°9.204 2°37.205 2.7 1.8 336.2 9.9
2002-08-12 08:05:12 51°9.209 2°37.201 355.3 2.6 333 10
2002-08-12 08:05:17 51°9.213 2°37.197 346.7 3.3 329.3 10
2002-08-12 08:05:22 51°9.218 2°37.192 337.7 4.1 321.9 10.1
2002-08-12 08:05:26 51°9.221 2°37.185 327 4.6 315.7 10.1
2002-08-12 08:05:32 51°9.226 2°37.173 317.2 5.4 305.2 10.3
2002-08-12 08:05:37 51°9.229 2°37.16 306.7 5.8 298.2 10.3
2002-08-12 08:05:42 51°9.231 2°37.146 296.7 6.3 287.6 10.4
2002-08-12 08:05:47 51°9.232 2°37.131 286.2 6.6 280.5 10.4
2002-08-12 08:05:52 51°9.231 2°37.115 275.8 7 269.8 10.5
2002-08-12 08:05:57 51°9.229 2°37.099 264.7 7.1 262.6 10.5
2002-08-12 08:06:02 51°9.225 2°37.084 254.3 7.3 251.4 10.5
2002-08-12 08:06:07 51°9.22 2°37.07 243.2 7.4 244 10.4
2002-08-12 08:06:12 51°9.213 2°37.057 232.3 7.5 232.9 10.4
2002-08-12 08:06:17 51°9.205 2°37.047 220.5 7.5 224.8 10.3
2002-08-12 08:06:22 51°9.196 2°37.038 209.7 7.4 213.4 10.2
2002-08-12 08:06:26 51°9.188 2°37.034 198.3 7.3 205.4 10.2
2002-08-12 08:06:32 51°9.177 2°37.03 187.3 7.2 193.2 10.1
2002-08-12 08:06:37 51°9.167 2°37.03 176.7 7.1 185 9.9
2002-08-12 08:06:42 51°9.157 2°37.033 166 6.9 172.6 9.7
2002-08-12 08:06:46 51°9.15 2°37.038 154.7 6.8 163.8 9.7
2002-08-12 08:06:52 51°9.141 2°37.047 144.2 6.6 150.7 9.5
2002-08-12 08:06:57 51°9.135 2°37.057 133.5 6.5 142 9.5
2002-08-12 08:07:02 51°9.13 2°37.068 122.7 6.2 127.8 9.4
2002-08-12 08:07:07 51°9.126 2°37.08 112.7 6.1 118.7 9.3
2002-08-12 08:07:12 51°9.125 2°37.093 102 6 103.3 9.3
2002-08-12 08:07:17 51°9.126 2°37.106 91 6 93.8 9.3
2002-08-12 08:07:22 51°9.127 2°37.119 80.7 6 79.8 9.3
2002-08-12 08:07:26 51°9.13 2°37.129 71.3 6 71.2 9.3
2002-08-12 08:07:32 51°9.135 2°37.142 64.2 5.8 61.5 9.3
2002-08-12 08:07:37 51°9.139 2°37.152 61.2 5.5 58.8 9.3
2002-08-12 08:07:42 51°9.143 2°37.162 61.7 5.2 57.5 9.4
2002-08-12 08:07:46 51°9.146 2°37.169 65.5 4.9 60 9.3